Time;durP1;ratioP1;P1;durP2;ratioP2;P2;SDS_P1;SDS_P2;PMS_P1;PMS_P2;Temp;Humidity;BMP_temperature;BMP_pressure;BME280_temperature;BME280_humidity;BME280_pressure;Samples;Min_cycle;Max_cycle;Signal;HPM_P1;HPM_P2
2022/03/19 00:02:23;;;;;;;22.10;7.38;;;10.50;99.90;;;;;;5042034;28;20129;-84
2022/03/19 00:04:49;;;;;;;14.15;6.25;;;10.50;99.90;;;;;;5053977;28;20102;-84
2022/03/19 00:07:15;;;;;;;16.77;6.07;;;10.70;99.90;;;;;;5053833;28;20033;-84
2022/03/19 00:09:42;;;;;;;14.82;5.90;;;10.70;99.90;;;;;;5054215;28;20029;-83
2022/03/19 00:12:13;;;;;;;13.85;6.25;;;10.50;99.90;;;;;;5053928;28;20032;-83
2022/03/19 00:14:38;;;;;;;12.38;6.70;;;10.50;99.90;;;;;;5053455;28;20044;-83
2022/03/19 00:17:04;;;;;;;14.98;5.95;;;10.60;99.90;;;;;;5052268;28;20024;-83
2022/03/19 00:19:30;;;;;;;12.38;6.07;;;10.50;99.90;;;;;;5052546;28;20120;-83
2022/03/19 00:21:56;;;;;;;9.30;6.43;;;10.40;99.90;;;;;;5053698;28;20032;-84
2022/03/19 00:24:22;;;;;;;14.65;6.63;;;10.40;99.90;;;;;;5053381;28;20116;-83
2022/03/19 00:26:47;;;;;;;12.82;6.40;;;10.30;99.90;;;;;;5052019;28;20119;-83
2022/03/19 00:29:13;;;;;;;11.18;6.13;;;10.30;99.90;;;;;;5052010;28;20124;-84
2022/03/19 00:31:39;;;;;;;11.65;6.15;;;10.50;99.90;;;;;;5052200;28;20040;-84
2022/03/19 00:34:04;;;;;;;19.60;6.70;;;10.30;99.90;;;;;;5052747;28;20021;-83
2022/03/19 00:36:30;;;;;;;15.93;6.03;;;10.20;99.90;;;;;;5053348;28;20037;-84
2022/03/19 00:38:56;;;;;;;15.93;6.53;;;10.10;99.90;;;;;;5053174;28;20029;-82
2022/03/19 00:41:22;;;;;;;9.77;5.93;;;10.10;99.90;;;;;;5053347;28;20021;-83
2022/03/19 00:43:48;;;;;;;16.38;6.78;;;10.00;99.90;;;;;;5051790;28;20460;-84
2022/03/19 00:46:15;;;;;;;16.02;6.13;;;10.00;99.90;;;;;;5053180;28;20033;-83
2022/03/19 00:48:42;;;;;;;14.82;6.30;;;10.10;99.90;;;;;;5051940;28;20111;-83
2022/03/19 00:51:08;;;;;;;11.93;6.13;;;10.20;99.90;;;;;;5051945;28;20033;-83
2022/03/19 00:53:34;;;;;;;18.17;6.32;;;10.20;99.90;;;;;;5053314;28;20473;-84
2022/03/19 00:56:00;;;;;;;16.95;6.55;;;10.20;99.90;;;;;;5053279;28;20021;-83
2022/03/19 00:58:25;;;;;;;14.75;7.57;;;10.30;99.90;;;;;;5051855;28;20539;-84
2022/03/19 01:00:51;;;;;;;13.65;6.15;;;10.20;99.90;;;;;;5052813;28;20039;-80
2022/03/19 01:03:18;;;;;;;15.27;7.20;;;10.00;99.90;;;;;;5052627;28;20405;-83
2022/03/19 01:05:43;;;;;;;13.13;6.63;;;9.90;99.90;;;;;;5052987;28;20032;-84
2022/03/19 01:08:11;;;;;;;17.73;6.65;;;9.80;99.90;;;;;;5052843;28;20363;-80
2022/03/19 01:10:37;;;;;;;13.77;7.65;;;9.80;99.90;;;;;;5052639;28;20483;-81
2022/03/19 01:13:05;;;;;;;12.95;6.78;;;9.80;99.90;;;;;;5052898;28;20025;-81
2022/03/19 01:15:31;;;;;;;15.63;7.60;;;9.70;99.90;;;;;;5053061;28;20039;-82
2022/03/19 01:17:57;;;;;;;11.32;6.63;;;9.80;99.90;;;;;;5051659;28;20020;-82
2022/03/19 01:20:24;;;;;;;13.85;6.65;;;9.70;99.90;;;;;;5052824;28;20025;-84
2022/03/19 01:22:51;;;;;;;13.20;7.35;;;9.90;99.90;;;;;;5052731;28;20025;-84
2022/03/19 01:25:18;;;;;;;13.52;6.45;;;9.90;99.90;;;;;;5052317;28;20037;-79
2022/03/19 01:27:45;;;;;;;16.63;7.25;;;9.90;99.90;;;;;;5052802;28;20029;-80
2022/03/19 01:30:12;;;;;;;14.32;6.82;;;9.80;99.90;;;;;;5052505;28;20040;-79
2022/03/19 01:32:39;;;;;;;15.18;7.07;;;9.60;99.90;;;;;;5052826;28;20021;-84
2022/03/19 01:35:05;;;;;;;13.10;7.15;;;9.80;99.90;;;;;;5051575;28;20179;-83
2022/03/19 01:37:31;;;;;;;20.00;7.82;;;9.90;99.90;;;;;;5034843;28;20025;-78
2022/03/19 01:39:57;;;;;;;18.63;7.72;;;10.00;99.90;;;;;;5052170;28;20032;-78
2022/03/19 01:42:27;;;;;;;19.23;7.85;;;10.00;99.90;;;;;;5052805;28;20025;-81
2022/03/19 01:44:54;;;;;;;13.60;6.75;;;9.90;99.90;;;;;;5054447;28;20110;-80
2022/03/19 01:47:20;;;;;;;20.48;7.80;;;9.80;99.90;;;;;;5056642;28;20081;-76
2022/03/19 01:49:46;;;;;;;17.33;7.57;;;10.00;99.90;;;;;;5056438;28;20104;-75
2022/03/19 01:52:12;;;;;;;16.73;7.00;;;9.90;99.90;;;;;;5056526;28;20452;-81
2022/03/19 01:54:41;;;;;;;18.30;8.07;;;9.80;99.90;;;;;;5055928;28;20032;-80
2022/03/19 01:57:08;;;;;;;13.68;8.10;;;9.80;99.90;;;;;;5056370;28;20436;-76
2022/03/19 01:59:36;;;;;;;16.17;8.40;;;9.80;99.90;;;;;;5055105;28;20024;-79
2022/03/19 02:02:07;;;;;;;18.40;7.60;;;9.60;99.90;;;;;;5056142;28;20226;-80
2022/03/19 02:04:36;;;;;;;14.57;7.90;;;9.60;99.90;;;;;;5056108;28;20041;-80
2022/03/19 02:07:03;;;;;;;14.63;7.97;;;9.50;99.90;;;;;;5054856;28;20442;-83
2022/03/19 02:09:29;;;;;;;20.38;8.48;;;9.40;99.90;;;;;;5056114;28;20028;-82
2022/03/19 02:11:55;;;;;;;17.45;8.15;;;9.50;99.90;;;;;;5054941;28;20028;-83
2022/03/19 02:14:21;;;;;;;18.58;8.48;;;9.50;99.90;;;;;;5055939;28;20021;-83
2022/03/19 02:16:47;;;;;;;13.15;7.85;;;9.40;99.90;;;;;;5054529;28;20400;-83
2022/03/19 02:19:13;;;;;;;21.45;9.30;;;9.30;99.90;;;;;;5054561;28;20427;-83
2022/03/19 02:21:41;;;;;;;25.63;9.15;;;9.30;99.90;;;;;;5055868;28;20028;-84
2022/03/19 02:26:51;;;;;;;13.65;8.40;;;9.20;99.90;;;;;;5055662;28;20473;-83
2022/03/19 02:29:17;;;;;;;12.88;8.52;;;9.20;99.90;;;;;;5055505;28;20056;-83
2022/03/19 02:31:46;;;;;;;19.05;8.80;;;9.30;99.90;;;;;;5055745;28;20107;-83
2022/03/19 02:34:13;;;;;;;18.05;8.68;;;9.40;99.90;;;;;;5054445;28;20060;-83
2022/03/19 02:36:42;;;;;;;16.85;8.98;;;9.30;99.90;;;;;;5054239;28;20060;-82
2022/03/19 02:39:12;;;;;;;15.50;9.07;;;9.30;99.90;;;;;;5055157;28;20021;-83
2022/03/19 02:41:43;;;;;;;19.38;9.73;;;9.10;99.90;;;;;;5055558;28;20029;-83
2022/03/19 02:44:09;;;;;;;16.13;9.10;;;9.10;99.90;;;;;;5055416;28;20021;-83
2022/03/19 02:46:41;;;;;;;21.67;9.38;;;9.10;99.90;;;;;;5054198;28;20037;-83
2022/03/19 02:49:07;;;;;;;17.45;9.00;;;9.20;99.90;;;;;;5055267;28;20195;-83
2022/03/19 02:51:34;;;;;;;17.30;8.65;;;9.10;99.90;;;;;;5054103;28;20496;-83
2022/03/19 02:54:03;;;;;;;14.05;8.70;;;9.00;99.90;;;;;;5054810;28;20100;-78
2022/03/19 02:56:28;;;;;;;19.58;9.27;;;9.00;99.90;;;;;;5054071;28;20072;-76
2022/03/19 02:58:54;;;;;;;20.38;9.65;;;8.90;99.90;;;;;;5055250;28;20106;-79
2022/03/19 03:01:20;;;;;;;22.45;9.73;;;8.70;99.90;;;;;;5055074;28;20496;-79
2022/03/19 03:03:48;;;;;;;16.65;10.35;;;8.70;99.90;;;;;;5054942;28;20028;-77
2022/03/19 03:06:14;;;;;;;18.40;9.57;;;8.60;99.90;;;;;;5054909;28;20025;-81
2022/03/19 03:08:40;;;;;;;19.70;9.40;;;8.70;99.90;;;;;;5053679;28;20426;-82
2022/03/19 03:11:06;;;;;;;18.55;10.10;;;8.50;99.90;;;;;;5037440;28;20326;-81
2022/03/19 03:13:32;;;;;;;18.13;10.70;;;8.60;99.90;;;;;;5035077;28;20060;-80
2022/03/19 03:15:58;;;;;;;19.15;9.93;;;8.50;99.90;;;;;;5034794;28;20021;-81
2022/03/19 03:18:23;;;;;;;22.27;10.48;;;8.50;99.90;;;;;;5034857;28;20029;-83
2022/03/19 03:20:50;;;;;;;16.38;9.73;;;8.50;99.90;;;;;;5034856;28;20026;-81
2022/03/19 03:23:15;;;;;;;23.15;10.60;;;8.60;99.90;;;;;;5034901;28;20531;-81
2022/03/19 03:25:41;;;;;;;30.90;10.70;;;8.40;99.90;;;;;;5034597;28;20026;-83
2022/03/19 03:28:07;;;;;;;18.13;10.15;;;8.60;99.90;;;;;;5034676;28;20091;-83
2022/03/19 03:30:33;;;;;;;23.05;10.68;;;8.50;99.90;;;;;;5033270;28;20022;-74
2022/03/19 03:32:59;;;;;;;18.63;10.85;;;8.50;99.90;;;;;;5034681;28;20083;-80
2022/03/19 03:35:25;;;;;;;15.07;9.57;;;8.60;99.90;;;;;;5034471;28;20169;-78
2022/03/19 03:37:52;;;;;;;22.65;10.60;;;8.40;99.90;;;;;;5033243;28;20025;-83
2022/03/19 03:40:18;;;;;;;15.20;9.13;;;8.40;99.90;;;;;;5034458;28;20036;-80
2022/03/19 03:42:44;;;;;;;23.15;10.30;;;8.30;99.90;;;;;;5034311;28;20028;-82
2022/03/19 03:45:11;;;;;;;24.50;11.10;;;8.20;99.90;;;;;;5034356;28;20021;-79
2022/03/19 03:47:37;;;;;;;25.98;11.00;;;8.20;99.90;;;;;;5034323;28;20505;-79
2022/03/19 03:50:03;;;;;;;20.20;10.90;;;8.30;99.90;;;;;;5034021;28;20037;-78
2022/03/19 03:52:30;;;;;;;22.83;10.27;;;8.50;99.90;;;;;;5034153;28;20068;-83
2022/03/19 03:54:56;;;;;;;17.40;10.65;;;8.20;99.90;;;;;;5034110;28;20029;-81
2022/03/19 03:57:22;;;;;;;20.65;10.80;;;8.30;99.90;;;;;;5032857;28;20080;-83
2022/03/19 03:59:52;;;;;;;22.52;10.05;;;8.40;99.90;;;;;;5035483;28;20048;-83
2022/03/19 04:02:18;;;;;;;22.38;11.13;;;8.50;99.90;;;;;;5039726;28;20482;-79
2022/03/19 04:04:44;;;;;;;19.13;10.85;;;8.40;99.90;;;;;;5053719;28;20021;-76
2022/03/19 04:07:09;;;;;;;20.60;11.38;;;8.30;99.90;;;;;;5052225;28;20041;-81
2022/03/19 04:09:35;;;;;;;25.63;10.98;;;8.30;99.90;;;;;;5053998;28;20104;-82
2022/03/19 04:12:05;;;;;;;16.60;10.55;;;8.30;99.90;;;;;;5052282;28;20547;-82
2022/03/19 04:14:31;;;;;;;17.63;10.45;;;8.20;99.90;;;;;;5053898;28;20063;-84
2022/03/19 04:16:57;;;;;;;20.63;11.77;;;8.30;99.90;;;;;;5053861;28;20032;-84
2022/03/19 04:19:22;;;;;;;26.00;11.35;;;8.40;99.90;;;;;;5053597;28;20078;-83
2022/03/19 04:21:48;;;;;;;19.13;10.98;;;8.40;99.90;;;;;;5053728;28;20028;-83
2022/03/19 04:24:14;;;;;;;19.33;10.93;;;8.40;99.90;;;;;;5053610;28;20098;-83
2022/03/19 04:26:40;;;;;;;24.23;12.50;;;8.50;99.90;;;;;;5053405;28;20045;-83
2022/03/19 04:29:05;;;;;;;21.65;11.43;;;8.30;99.90;;;;;;5052462;28;20020;-83
2022/03/19 04:31:31;;;;;;;24.08;11.27;;;8.40;99.90;;;;;;5053257;28;20029;-83
2022/03/19 04:33:57;;;;;;;23.65;11.65;;;8.30;99.90;;;;;;5052040;28;20481;-82
2022/03/19 04:36:38;;;;;;;24.85;12.35;;;8.20;99.90;;;;;;5052137;28;20032;-83
2022/03/19 04:39:05;;;;;;;27.40;12.70;;;8.00;99.90;;;;;;5053369;28;20069;-83
2022/03/19 04:41:32;;;;;;;18.88;11.05;;;8.00;99.90;;;;;;5053426;28;20132;-82
2022/03/19 04:43:58;;;;;;;21.27;11.40;;;8.00;99.90;;;;;;5035708;28;20481;-83
2022/03/19 04:46:24;;;;;;;25.58;11.88;;;8.00;99.90;;;;;;5053320;28;20040;-83
2022/03/19 04:48:50;;;;;;;22.77;11.55;;;7.90;99.90;;;;;;5053484;28;20530;-84
2022/03/19 04:51:21;;;;;;;21.88;11.45;;;7.90;99.90;;;;;;5052483;28;20452;-84
2022/03/19 04:53:50;;;;;;;24.08;11.05;;;7.80;99.90;;;;;;5053701;28;20037;-83
2022/03/19 04:56:18;;;;;;;19.02;11.73;;;8.00;99.90;;;;;;5053622;28;20029;-83
2022/03/19 04:58:43;;;;;;;18.75;11.80;;;8.00;99.90;;;;;;5053008;28;20029;-81
2022/03/19 05:01:09;;;;;;;28.67;12.35;;;7.90;99.90;;;;;;5052976;28;20028;-83
2022/03/19 05:03:35;;;;;;;22.10;12.20;;;7.70;99.90;;;;;;5052562;28;20067;-83
2022/03/19 05:06:01;;;;;;;19.52;11.60;;;7.80;99.90;;;;;;5052836;28;20102;-82
2022/03/19 05:08:26;;;;;;;23.52;12.18;;;7.80;99.90;;;;;;5052773;28;20029;-83
2022/03/19 05:13:37;;;;;;;21.88;12.48;;;7.80;99.90;;;;;;5053648;28;20040;-83
2022/03/19 05:16:02;;;;;;;20.65;12.52;;;7.70;99.90;;;;;;5053011;28;20127;-83
2022/03/19 05:18:28;;;;;;;21.98;11.60;;;7.70;99.90;;;;;;5054491;28;20531;-80
2022/03/19 05:20:55;;;;;;;25.13;12.85;;;7.60;99.90;;;;;;5055794;28;20033;-83
2022/03/19 05:23:20;;;;;;;26.60;12.07;;;7.60;99.90;;;;;;5054888;28;20036;-83
2022/03/19 05:25:46;;;;;;;18.10;11.43;;;7.70;99.90;;;;;;5054904;28;20865;-84
2022/03/19 05:28:13;;;;;;;19.90;11.65;;;7.80;99.90;;;;;;5055985;28;20037;-84
2022/03/19 05:30:39;;;;;;;20.83;12.70;;;7.50;99.90;;;;;;5055996;28;20021;-84
2022/03/19 05:33:05;;;;;;;19.90;13.40;;;7.50;99.90;;;;;;5055608;28;20044;-84
2022/03/19 05:35:31;;;;;;;22.15;12.10;;;7.60;99.90;;;;;;5056761;28;20539;-83
2022/03/19 05:37:59;;;;;;;24.75;13.43;;;7.40;99.90;;;;;;5038773;28;20075;-84
2022/03/19 05:40:26;;;;;;;25.27;12.60;;;7.50;99.90;;;;;;5056499;28;20025;-83
2022/03/19 05:42:52;;;;;;;21.98;11.57;;;7.50;99.90;;;;;;5057207;28;20037;-83
2022/03/19 05:45:20;;;;;;;28.13;13.35;;;7.60;99.90;;;;;;5057270;28;20078;-83
2022/03/19 05:47:46;;;;;;;22.55;11.82;;;7.50;99.90;;;;;;5056913;28;20458;-82
2022/03/19 05:50:12;;;;;;;19.65;12.20;;;7.40;99.90;;;;;;5055763;28;20033;-84
2022/03/19 05:52:40;;;;;;;24.00;12.77;;;7.50;99.90;;;;;;5054271;28;20068;-84
2022/03/19 05:55:07;;;;;;;25.80;12.90;;;7.50;99.90;;;;;;5054983;28;20029;-83
2022/03/19 05:57:33;;;;;;;19.50;12.43;;;7.60;99.90;;;;;;5054964;28;20037;-83
2022/03/19 05:59:59;;;;;;;24.23;13.32;;;7.60;99.90;;;;;;5055399;28;20035;-84
2022/03/19 06:02:26;;;;;;;23.45;13.20;;;7.40;99.90;;;;;;5058071;28;20444;-83
2022/03/19 06:04:52;;;;;;;27.58;12.60;;;7.70;99.90;;;;;;5056433;28;20043;-83
2022/03/19 06:07:18;;;;;;;25.67;13.30;;;7.60;99.90;;;;;;5056204;28;20081;-83
2022/03/19 06:09:44;;;;;;;27.80;12.77;;;7.70;99.90;;;;;;5057530;28;20021;-84
2022/03/19 06:12:10;;;;;;;25.85;13.05;;;7.60;99.90;;;;;;5055990;28;20029;-84
2022/03/19 06:14:36;;;;;;;25.73;12.82;;;7.70;99.90;;;;;;5055472;28;20045;-84
2022/03/19 06:17:02;;;;;;;22.48;13.52;;;7.50;99.90;;;;;;5053889;28;20032;-84
2022/03/19 06:19:28;;;;;;;23.90;12.40;;;7.70;99.90;;;;;;5053127;28;20029;-84
2022/03/19 06:21:54;;;;;;;28.40;14.07;;;7.70;99.90;;;;;;5055059;28;20021;-85
2022/03/19 06:24:22;;;;;;;24.48;13.40;;;7.90;99.90;;;;;;5052916;28;20466;-84
2022/03/19 06:26:48;;;;;;;26.05;13.50;;;8.00;99.90;;;;;;5052448;28;20473;-84
2022/03/19 06:29:14;;;;;;;22.75;12.90;;;8.00;99.90;;;;;;5053306;28;20028;-84
2022/03/19 06:31:39;;;;;;;23.60;11.88;;;7.80;99.90;;;;;;5053809;28;20025;-83
2022/03/19 06:34:05;;;;;;;21.13;13.15;;;7.70;99.90;;;;;;5056186;28;20057;-84
2022/03/19 06:39:16;;;;;;;23.00;13.35;;;8.00;99.90;;;;;;5055955;28;20025;-82
2022/03/19 06:41:42;;;;;;;27.80;14.23;;;8.10;99.90;;;;;;5058528;28;20035;-78
2022/03/19 06:44:08;;;;;;;19.13;11.90;;;8.10;99.90;;;;;;5059408;28;20469;-82
2022/03/19 06:46:34;;;;;;;29.88;13.60;;;8.10;99.90;;;;;;5058810;28;20090;-82
2022/03/19 06:49:00;;;;;;;22.77;13.60;;;8.00;99.90;;;;;;5056974;28;20381;-77
2022/03/19 06:51:26;;;;;;;26.58;12.48;;;8.10;99.90;;;;;;5055027;28;20424;-79
2022/03/19 06:53:51;;;;;;;17.60;12.30;;;8.20;99.90;;;;;;5056313;28;20017;-81
2022/03/19 06:56:18;;;;;;;18.25;11.77;;;8.10;99.90;;;;;;5038327;28;20511;-83
2022/03/19 06:58:44;;;;;;;33.65;13.30;;;8.20;99.90;;;;;;5058723;28;20108;-82
2022/03/19 07:01:15;;;;;;;29.55;12.18;;;8.30;99.90;;;;;;5058321;28;20052;-84
2022/03/19 07:03:47;;;;;;;30.80;12.63;;;8.20;99.90;;;;;;5057564;28;20127;-83
2022/03/19 07:06:15;;;;;;;23.15;11.52;;;8.20;99.90;;;;;;5058169;28;20041;-84
2022/03/19 07:08:42;;;;;;;28.88;11.65;;;8.30;99.90;;;;;;5058060;28;20025;-79
2022/03/19 07:11:07;;;;;;;23.83;12.15;;;8.40;99.90;;;;;;5057415;28;20032;-81
2022/03/19 07:13:33;;;;;;;28.15;12.40;;;8.40;99.90;;;;;;5056635;28;20381;-82
2022/03/19 07:15:59;;;;;;;26.60;11.93;;;8.40;99.90;;;;;;5055895;28;20096;-79
2022/03/19 07:18:25;;;;;;;22.52;11.43;;;8.40;99.90;;;;;;5055149;28;20035;-83
2022/03/19 07:20:51;;;;;;;27.00;12.70;;;8.50;99.90;;;;;;5054879;28;20029;-85
2022/03/19 07:23:17;;;;;;;30.65;12.18;;;8.50;99.90;;;;;;5055626;28;20029;-83
2022/03/19 07:25:43;;;;;;;27.85;11.02;;;8.50;99.90;;;;;;5054924;28;20087;-85
2022/03/19 07:28:12;;;;;;;19.38;11.48;;;8.50;99.90;;;;;;5055153;28;20040;-85
2022/03/19 07:30:39;;;;;;;18.45;10.50;;;8.70;99.90;;;;;;5055653;28;20033;-84
2022/03/19 07:33:05;;;;;;;28.40;12.20;;;8.80;99.90;;;;;;5056567;28;20032;-85
2022/03/19 07:35:31;;;;;;;19.33;11.07;;;8.80;99.90;;;;;;5055647;28;20440;-84
2022/03/19 07:37:57;;;;;;;24.05;10.98;;;8.90;99.90;;;;;;5046277;28;20123;-83
2022/03/19 07:43:10;;;;;;;21.48;11.10;;;9.10;99.90;;;;;;5036821;28;20509;-84
2022/03/19 07:45:37;;;;;;;21.08;10.80;;;9.20;99.90;;;;;;5036083;28;20025;-83
2022/03/19 07:48:04;;;;;;;20.27;10.18;;;9.20;99.90;;;;;;5035353;28;20106;-84
2022/03/19 07:50:30;;;;;;;24.02;10.68;;;9.30;99.90;;;;;;5039937;28;20501;-83
2022/03/19 07:52:56;;;;;;;16.40;9.35;;;9.40;99.90;;;;;;5034772;28;20065;-84
2022/03/19 07:55:22;;;;;;;21.17;10.10;;;9.50;99.90;;;;;;5032850;28;20033;-81
2022/03/19 07:57:48;;;;;;;21.05;9.25;;;9.60;99.90;;;;;;5033381;28;20033;-84
2022/03/19 08:00:14;;;;;;;17.42;8.80;;;9.60;99.90;;;;;;5033896;28;20044;-83
2022/03/19 08:02:43;;;;;;;19.27;9.77;;;9.60;99.90;;;;;;5043976;28;20432;-85
2022/03/19 08:05:10;;;;;;;19.80;10.00;;;9.80;99.90;;;;;;5053660;28;20032;-84
2022/03/19 08:07:37;;;;;;;22.80;9.82;;;9.80;99.90;;;;;;5045843;28;20044;-85
2022/03/19 08:10:04;;;;;;;17.77;8.18;;;10.00;99.90;;;;;;5033693;28;20033;-86
2022/03/19 08:12:30;;;;;;;21.58;8.55;;;10.20;99.90;;;;;;5033098;28;20390;-86
2022/03/19 08:14:56;;;;;;;18.02;8.88;;;10.20;99.90;;;;;;5033560;28;20030;-86
2022/03/19 08:17:22;;;;;;;18.35;9.20;;;10.40;99.90;;;;;;5032322;28;20075;-86
2022/03/19 08:19:48;;;;;;;15.18;8.55;;;10.70;99.90;;;;;;5031979;28;20041;-87
2022/03/19 08:22:14;;;;;;;18.60;8.25;;;10.70;99.90;;;;;;5032037;28;20032;-85
2022/03/19 08:24:40;;;;;;;19.98;8.45;;;10.70;99.90;;;;;;5032545;28;20121;-86
2022/03/19 08:27:06;;;;;;;22.20;8.40;;;10.70;99.90;;;;;;5033559;28;20131;-86
2022/03/19 08:29:31;;;;;;;19.75;8.23;;;11.00;99.90;;;;;;5035066;28;20028;-77
2022/03/19 08:31:57;;;;;;;19.80;8.18;;;11.10;99.90;;;;;;5034082;28;20022;-85
2022/03/19 08:34:23;;;;;;;18.98;7.03;;;11.20;99.90;;;;;;5034655;28;20389;-86
2022/03/19 08:36:49;;;;;;;20.55;8.00;;;11.40;99.90;;;;;;5031405;28;20045;-87
2022/03/19 08:41:59;;;;;;;17.77;8.35;;;11.50;99.90;;;;;;5052679;28;20489;-86
2022/03/19 08:44:26;;;;;;;16.33;7.38;;;11.70;99.90;;;;;;5051563;28;20031;-87
2022/03/19 08:46:52;;;;;;;10.75;6.20;;;11.70;99.90;;;;;;5051185;28;20098;-87
2022/03/19 08:49:19;;;;;;;19.45;7.18;;;11.70;99.90;;;;;;5052231;28;20045;-85
2022/03/19 08:51:45;;;;;;;16.42;7.15;;;11.80;99.90;;;;;;5052484;28;20092;-87
2022/03/19 08:54:19;;;;;;;16.08;6.88;;;12.00;99.90;;;;;;5051935;28;20393;-87
2022/03/19 08:56:47;;;;;;;13.60;6.38;;;12.30;99.60;;;;;;5052061;28;20397;-87
2022/03/19 08:59:16;;;;;;;14.50;6.50;;;12.30;99.80;;;;;;5052671;28;20028;-87
2022/03/19 09:01:44;;;;;;;30.00;6.82;;;12.30;98.80;;;;;;5052427;28;20033;-87
2022/03/19 09:04:11;;;;;;;14.00;6.28;;;12.50;98.80;;;;;;5052584;28;20029;-87
2022/03/19 09:06:37;;;;;;;23.33;6.28;;;12.60;99.40;;;;;;5052545;28;20045;-85
2022/03/19 09:09:04;;;;;;;11.57;5.80;;;12.70;98.00;;;;;;5051945;28;20496;-86
2022/03/19 09:11:31;;;;;;;14.85;5.13;;;12.60;97.70;;;;;;5052591;28;20056;-87
2022/03/19 09:13:57;;;;;;;13.30;5.03;;;12.70;97.00;;;;;;5053037;28;20087;-86
2022/03/19 09:16:26;;;;;;;11.32;5.38;;;12.80;96.50;;;;;;5052306;28;20021;-87
2022/03/19 09:18:53;;;;;;;13.07;4.78;;;12.80;96.80;;;;;;5053170;28;20052;-84
2022/03/19 09:21:19;;;;;;;14.18;5.78;;;12.90;95.90;;;;;;5058370;28;20025;-86
2022/03/19 09:23:45;;;;;;;18.58;5.18;;;12.90;96.00;;;;;;5057081;28;20366;-84
2022/03/19 09:26:14;;;;;;;19.95;6.60;;;13.00;96.30;;;;;;5055776;28;20045;-86
2022/03/19 09:28:40;;;;;;;22.27;5.65;;;13.00;95.90;;;;;;5052936;28;20055;-85
2022/03/19 09:31:06;;;;;;;13.52;5.10;;;13.30;96.60;;;;;;5052467;28;20064;-86
2022/03/19 09:33:32;;;;;;;15.82;4.80;;;13.50;95.90;;;;;;5052239;28;20032;-85
2022/03/19 09:36:01;;;;;;;15.38;5.78;;;13.60;95.30;;;;;;5052445;28;20046;-87
2022/03/19 09:38:29;;;;;;;11.13;5.25;;;13.40;95.10;;;;;;5051902;28;20028;-85
2022/03/19 09:40:56;;;;;;;15.75;5.07;;;13.30;95.60;;;;;;5052181;28;20024;-84
2022/03/19 09:43:25;;;;;;;18.20;5.15;;;13.40;95.40;;;;;;5042525;28;20021;-78
2022/03/19 09:45:52;;;;;;;11.23;5.43;;;13.60;95.30;;;;;;5031930;28;20036;-83
2022/03/19 09:48:19;;;;;;;16.85;5.57;;;13.70;95.00;;;;;;5033702;28;20021;-88
2022/03/19 09:50:51;;;;;;;14.20;5.43;;;13.70;94.70;;;;;;5033214;28;20486;-88
2022/03/19 09:53:24;;;;;;;;;;;13.90;94.60;;;;;;5033898;28;20470;-89
2022/03/19 09:55:53;;;;;;;14.35;4.80;;;14.10;94.20;;;;;;5036095;28;20353;-89
2022/03/19 09:58:19;;;;;;;15.82;6.00;;;14.00;93.90;;;;;;5034990;28;20025;-86
2022/03/19 10:00:45;;;;;;;27.38;6.00;;;14.10;94.20;;;;;;5037356;28;20428;-90
2022/03/19 10:03:12;;;;;;;15.90;5.55;;;14.10;93.50;;;;;;5050395;28;20469;-88
2022/03/19 10:08:38;;;;;;;11.90;4.85;;;14.20;93.00;;;;;;5059876;28;20090;-86
2022/03/19 10:11:12;;;;;;;12.13;5.78;;;14.60;93.30;;;;;;5059385;28;20061;-83
2022/03/19 10:13:38;;;;;;;11.32;4.85;;;14.60;92.60;;;;;;5056280;28;20033;-87
2022/03/19 10:16:05;;;;;;;13.80;4.53;;;14.50;92.60;;;;;;5055160;28;20032;-88
2022/03/19 10:18:32;;;;;;;19.08;4.60;;;14.50;91.70;;;;;;5038563;28;20028;-88
2022/03/19 10:21:03;;;;;;;16.38;3.97;;;14.50;91.30;;;;;;5055934;28;20522;-84
2022/03/19 10:23:35;;;;;;;15.48;5.20;;;14.70;91.20;;;;;;5054929;28;20021;-86
2022/03/19 10:26:01;;;;;;;15.30;5.35;;;15.00;90.70;;;;;;5055934;28;20036;-84
2022/03/19 10:28:33;;;;;;;14.95;4.18;;;15.20;91.30;;;;;;5039168;28;20029;-86
2022/03/19 10:31:00;;;;;;;28.58;4.85;;;15.00;89.90;;;;;;5057223;28;20392;-87
2022/03/19 10:33:28;;;;;;;15.35;4.30;;;15.20;89.30;;;;;;5049164;28;20048;-84
2022/03/19 10:36:07;;;;;;;16.75;4.60;;;15.30;88.10;;;;;;5036836;28;20025;-76
2022/03/19 10:38:44;;;;;;;16.80;4.25;;;15.40;88.60;;;;;;5036718;28;20034;-76
2022/03/19 10:41:12;;;;;;;12.55;4.40;;;15.80;87.10;;;;;;5036926;28;20445;-76
2022/03/19 10:43:38;;;;;;;16.55;4.28;;;15.80;86.40;;;;;;5035004;28;20045;-75
2022/03/19 10:46:04;;;;;;;14.27;3.75;;;16.00;85.20;;;;;;5034376;28;20033;-77
2022/03/19 10:48:31;;;;;;;8.18;3.60;;;15.90;86.40;;;;;;5036505;28;20100;-76
2022/03/19 10:50:57;;;;;;;11.57;3.85;;;16.10;85.00;;;;;;5047337;28;20551;-76
2022/03/19 10:53:25;;;;;;;11.98;3.83;;;16.30;83.50;;;;;;5034581;28;20159;-75
2022/03/19 10:55:52;;;;;;;20.45;4.45;;;16.50;85.30;;;;;;5036424;28;20024;-76
2022/03/19 10:58:18;;;;;;;9.57;3.85;;;16.60;83.90;;;;;;5033674;28;20095;-76
2022/03/19 11:00:48;;;;;;;25.45;4.85;;;17.00;82.70;;;;;;5034813;28;20064;-76
2022/03/19 11:03:35;;;;;;;15.95;4.05;;;16.90;82.40;;;;;;5049785;28;20495;-77
2022/03/19 11:06:05;;;;;;;7.28;3.55;;;17.00;80.10;;;;;;5053900;28;20021;-76
2022/03/19 11:08:38;;;;;;;9.77;3.67;;;17.40;80.80;;;;;;5042865;28;20033;-77
2022/03/19 11:11:27;;;;;;;14.43;3.78;;;17.50;77.20;;;;;;5049763;28;20191;-76
2022/03/19 11:13:57;;;;;;;14.80;3.83;;;17.60;77.90;;;;;;5054667;28;20029;-83
2022/03/19 11:16:25;;;;;;;11.60;3.45;;;17.80;76.80;;;;;;5053286;28;20028;-76
2022/03/19 11:18:53;;;;;;;14.18;3.28;;;18.00;75.30;;;;;;5046657;28;20028;-77
2022/03/19 11:21:20;;;;;;;15.65;3.90;;;17.70;75.90;;;;;;5047918;28;20029;-77
2022/03/19 11:23:54;;;;;;;11.68;3.28;;;18.20;77.10;;;;;;5034528;28;20029;-77
2022/03/19 11:26:23;;;;;;;8.15;3.30;;;18.50;74.50;;;;;;5033541;28;20044;-77
2022/03/19 11:28:50;;;;;;;4.97;3.03;;;18.00;73.50;;;;;;5046240;28;20030;-76
2022/03/19 11:31:24;;;;;;;8.27;2.67;;;17.90;73.20;;;;;;5033918;28;20497;-76
2022/03/19 11:33:50;;;;;;;10.73;2.97;;;18.30;74.10;;;;;;5033065;28;20038;-75
2022/03/19 11:36:16;;;;;;;16.17;3.33;;;18.70;72.90;;;;;;5031560;28;20021;-76
2022/03/19 11:38:52;;;;;;;7.22;3.58;;;19.10;71.20;;;;;;5036999;28;20021;-77
2022/03/19 11:41:25;;;;;;;11.90;3.50;;;19.10;71.50;;;;;;5033764;28;20025;-73
2022/03/19 11:44:23;;;;;;;12.45;3.20;;;19.50;71.30;;;;;;5032593;28;20033;-80
2022/03/19 11:46:58;;;;;;;10.07;3.75;;;20.10;70.80;;;;;;5029389;28;20092;-80
2022/03/19 11:49:53;;;;;;;8.45;3.30;;;20.30;71.20;;;;;;5033818;28;20025;-81
2022/03/19 11:52:25;;;;;;;8.80;3.63;;;20.00;71.70;;;;;;5033915;28;20048;-81
2022/03/19 11:55:06;;;;;;;11.18;3.90;;;19.80;70.90;;;;;;5033939;28;20041;-81
2022/03/19 11:57:55;;;;;;;11.18;2.92;;;20.00;70.70;;;;;;5033811;28;20032;-81
2022/03/19 12:00:32;;;;;;;13.77;3.20;;;20.20;70.80;;;;;;5032979;28;20151;-82
2022/03/19 12:03:02;;;;;;;7.53;3.50;;;20.50;70.60;;;;;;5045728;28;20462;-80
2022/03/19 12:05:28;;;;;;;14.82;3.90;;;21.00;70.80;;;;;;5053792;28;20044;-82
2022/03/19 12:07:57;;;;;;;10.90;3.92;;;21.30;71.30;;;;;;5053483;28;20110;-81
2022/03/19 12:10:27;;;;;;;11.55;3.78;;;21.20;71.60;;;;;;5041610;28;20021;-80
2022/03/19 12:12:57;;;;;;;10.33;3.90;;;22.20;68.70;;;;;;5031787;28;20025;-82
2022/03/19 12:15:31;;;;;;;12.75;3.35;;;23.20;69.60;;;;;;5033177;28;20521;-80
2022/03/19 12:18:39;;;;;;;18.92;3.55;;;23.10;68.30;;;;;;5032447;28;20029;-82
2022/03/19 12:21:17;;;;;;;13.43;3.42;;;24.30;68.00;;;;;;5029742;28;20045;-83
2022/03/19 12:24:06;;;;;;;9.57;3.20;;;23.10;66.70;;;;;;5032618;28;20018;-81
2022/03/19 12:26:38;;;;;;;14.10;3.40;;;23.40;65.60;;;;;;5050627;28;20033;-82
2022/03/19 12:29:08;;;;;;;9.27;3.33;;;23.90;64.60;;;;;;5045064;28;20029;-80
2022/03/19 12:31:36;;;;;;;10.48;3.55;;;23.40;63.80;;;;;;5032376;28;20029;-83
2022/03/19 12:34:04;;;;;;;14.65;3.03;;;24.10;63.40;;;;;;5032996;28;20501;-82
2022/03/19 12:36:31;;;;;;;11.50;3.40;;;24.50;62.00;;;;;;5033184;28;20036;-82
2022/03/19 12:39:06;;;;;;;10.77;3.33;;;24.60;61.60;;;;;;5032148;28;20389;-82
2022/03/19 12:41:33;;;;;;;12.30;3.42;;;23.60;62.10;;;;;;5032158;28;20484;-82
2022/03/19 12:44:20;;;;;;;7.35;3.00;;;23.20;61.50;;;;;;5033340;28;20063;-83
2022/03/19 12:46:47;;;;;;;6.82;3.22;;;23.60;61.40;;;;;;5032902;28;20374;-81
2022/03/19 12:49:15;;;;;;;10.18;3.55;;;23.40;60.50;;;;;;5033401;28;20032;-78
2022/03/19 12:51:47;;;;;;;12.15;2.80;;;23.60;60.00;;;;;;5048896;28;20029;-85
2022/03/19 12:54:31;;;;;;;11.82;3.42;;;23.90;59.40;;;;;;5052314;28;20032;-77
2022/03/19 12:57:10;;;;;;;13.95;3.47;;;24.20;60.20;;;;;;5052507;28;20086;-82
2022/03/19 12:59:37;;;;;;;8.45;3.08;;;23.80;58.30;;;;;;5046271;28;20032;-82
2022/03/19 13:02:03;;;;;;;11.00;2.92;;;23.60;58.80;;;;;;5039492;28;20374;-83